sensor_id;sensor_type;location;lat;lon;timestamp;temperature;humidity
210;DHT22;90;48.810;9.120;2022-11-13T00:01:10;6.10;88.60
210;DHT22;90;48.810;9.120;2022-11-13T00:03:38;6.10;88.40
210;DHT22;90;48.810;9.120;2022-11-13T00:06:07;6.00;88.50
210;DHT22;90;48.810;9.120;2022-11-13T00:08:33;6.00;88.40
210;DHT22;90;48.810;9.120;2022-11-13T00:11:02;6.00;88.60
210;DHT22;90;48.810;9.120;2022-11-13T00:13:29;6.00;88.40
210;DHT22;90;48.810;9.120;2022-11-13T00:15:58;5.90;88.40
210;DHT22;90;48.810;9.120;2022-11-13T00:18:25;5.90;88.50
210;DHT22;90;48.810;9.120;2022-11-13T00:20:52;5.90;88.80
210;DHT22;90;48.810;9.120;2022-11-13T00:23:21;6.00;88.60
210;DHT22;90;48.810;9.120;2022-11-13T00:25:48;6.00;88.10
210;DHT22;90;48.810;9.120;2022-11-13T00:28:15;6.00;88.10
210;DHT22;90;48.810;9.120;2022-11-13T00:30:42;5.90;87.90
210;DHT22;90;48.810;9.120;2022-11-13T00:33:10;5.90;88.00
210;DHT22;90;48.810;9.120;2022-11-13T00:35:37;5.80;88.50
210;DHT22;90;48.810;9.120;2022-11-13T00:38:03;5.80;88.80
210;DHT22;90;48.810;9.120;2022-11-13T00:40:32;5.80;88.50
210;DHT22;90;48.810;9.120;2022-11-13T00:42:59;5.80;88.60
210;DHT22;90;48.810;9.120;2022-11-13T00:45:26;5.80;88.80
210;DHT22;90;48.810;9.120;2022-11-13T00:47:53;5.70;88.90
210;DHT22;90;48.810;9.120;2022-11-13T00:50:20;5.60;88.80
210;DHT22;90;48.810;9.120;2022-11-13T00:52:47;5.60;88.80
210;DHT22;90;48.810;9.120;2022-11-13T00:55:15;5.40;88.70
210;DHT22;90;48.810;9.120;2022-11-13T00:57:43;5.40;89.00
210;DHT22;90;48.810;9.120;2022-11-13T01:00:11;5.40;89.00
210;DHT22;90;48.810;9.120;2022-11-13T01:02:38;5.30;88.90
210;DHT22;90;48.810;9.120;2022-11-13T01:05:05;5.40;88.80
210;DHT22;90;48.810;9.120;2022-11-13T01:07:34;5.40;88.50
210;DHT22;90;48.810;9.120;2022-11-13T01:10:02;5.40;88.50
210;DHT22;90;48.810;9.120;2022-11-13T01:12:29;5.30;88.50
210;DHT22;90;48.810;9.120;2022-11-13T01:14:58;5.30;88.70
210;DHT22;90;48.810;9.120;2022-11-13T01:17:25;5.30;88.90
210;DHT22;90;48.810;9.120;2022-11-13T01:19:52;5.30;89.00
210;DHT22;90;48.810;9.120;2022-11-13T01:22:20;5.30;89.00
210;DHT22;90;48.810;9.120;2022-11-13T01:24:46;5.30;88.90
210;DHT22;90;48.810;9.120;2022-11-13T01:27:13;5.40;88.30
210;DHT22;90;48.810;9.120;2022-11-13T01:29:41;5.30;87.70
210;DHT22;90;48.810;9.120;2022-11-13T01:32:10;5.30;87.40
210;DHT22;90;48.810;9.120;2022-11-13T01:34:37;5.30;87.30
210;DHT22;90;48.810;9.120;2022-11-13T01:37:04;5.20;87.50
210;DHT22;90;48.810;9.120;2022-11-13T01:39:31;5.20;87.50
210;DHT22;90;48.810;9.120;2022-11-13T01:41:58;5.20;87.70
210;DHT22;90;48.810;9.120;2022-11-13T01:44:25;5.20;87.70
210;DHT22;90;48.810;9.120;2022-11-13T01:46:53;5.20;87.60
210;DHT22;90;48.810;9.120;2022-11-13T01:49:28;5.10;87.60
210;DHT22;90;48.810;9.120;2022-11-13T01:51:59;5.10;87.70
210;DHT22;90;48.810;9.120;2022-11-13T01:54:32;5.10;88.00
210;DHT22;90;48.810;9.120;2022-11-13T01:56:59;5.10;88.00
210;DHT22;90;48.810;9.120;2022-11-13T01:59:29;5.00;87.80
210;DHT22;90;48.810;9.120;2022-11-13T02:01:57;5.00;87.80
210;DHT22;90;48.810;9.120;2022-11-13T02:04:26;5.00;88.20
210;DHT22;90;48.810;9.120;2022-11-13T02:06:55;5.00;88.50
210;DHT22;90;48.810;9.120;2022-11-13T02:09:25;5.00;88.40
210;DHT22;90;48.810;9.120;2022-11-13T02:11:53;5.00;88.00
210;DHT22;90;48.810;9.120;2022-11-13T02:14:22;5.00;87.80
210;DHT22;90;48.810;9.120;2022-11-13T02:16:54;5.00;87.70
210;DHT22;90;48.810;9.120;2022-11-13T02:19:28;4.90;88.00
210;DHT22;90;48.810;9.120;2022-11-13T02:22:01;4.90;87.40
210;DHT22;90;48.810;9.120;2022-11-13T02:24:33;4.80;87.60
210;DHT22;90;48.810;9.120;2022-11-13T02:27:05;4.80;87.50
210;DHT22;90;48.810;9.120;2022-11-13T02:29:33;4.80;87.70
210;DHT22;90;48.810;9.120;2022-11-13T02:31:59;4.80;87.60
210;DHT22;90;48.810;9.120;2022-11-13T02:34:27;4.80;87.40
210;DHT22;90;48.810;9.120;2022-11-13T02:36:54;4.80;88.70
210;DHT22;90;48.810;9.120;2022-11-13T02:39:21;4.80;89.40
210;DHT22;90;48.810;9.120;2022-11-13T02:41:49;4.90;89.30
210;DHT22;90;48.810;9.120;2022-11-13T02:44:17;4.90;89.40
210;DHT22;90;48.810;9.120;2022-11-13T02:46:44;4.90;89.30
210;DHT22;90;48.810;9.120;2022-11-13T02:49:11;4.90;89.00
210;DHT22;90;48.810;9.120;2022-11-13T02:51:38;4.90;89.40
210;DHT22;90;48.810;9.120;2022-11-13T02:54:05;4.80;89.70
210;DHT22;90;48.810;9.120;2022-11-13T02:56:32;4.80;90.20
210;DHT22;90;48.810;9.120;2022-11-13T02:59:01;4.80;89.80
210;DHT22;90;48.810;9.120;2022-11-13T03:01:28;4.80;89.50
210;DHT22;90;48.810;9.120;2022-11-13T03:03:56;4.80;89.20
210;DHT22;90;48.810;9.120;2022-11-13T03:06:23;4.80;89.00
210;DHT22;90;48.810;9.120;2022-11-13T03:08:50;4.70;89.20
210;DHT22;90;48.810;9.120;2022-11-13T03:11:17;4.70;89.90
210;DHT22;90;48.810;9.120;2022-11-13T03:13:44;4.70;90.80
210;DHT22;90;48.810;9.120;2022-11-13T03:16:14;4.70;91.20
210;DHT22;90;48.810;9.120;2022-11-13T03:18:42;4.70;91.40
210;DHT22;90;48.810;9.120;2022-11-13T03:21:11;4.70;91.30
210;DHT22;90;48.810;9.120;2022-11-13T03:23:39;4.70;90.90
210;DHT22;90;48.810;9.120;2022-11-13T03:26:08;4.70;90.80
210;DHT22;90;48.810;9.120;2022-11-13T03:28:36;4.70;89.90
210;DHT22;90;48.810;9.120;2022-11-13T03:31:03;4.60;89.80
210;DHT22;90;48.810;9.120;2022-11-13T03:33:32;4.50;90.10
210;DHT22;90;48.810;9.120;2022-11-13T03:35:59;4.40;90.80
210;DHT22;90;48.810;9.120;2022-11-13T03:38:27;4.50;90.80
210;DHT22;90;48.810;9.120;2022-11-13T03:40:53;4.50;90.80
210;DHT22;90;48.810;9.120;2022-11-13T03:43:21;4.50;90.90
210;DHT22;90;48.810;9.120;2022-11-13T03:45:48;4.40;90.80
210;DHT22;90;48.810;9.120;2022-11-13T03:48:15;4.30;90.80
210;DHT22;90;48.810;9.120;2022-11-13T03:50:46;4.30;90.60
210;DHT22;90;48.810;9.120;2022-11-13T03:53:13;4.30;90.30
210;DHT22;90;48.810;9.120;2022-11-13T03:55:41;4.30;90.20
210;DHT22;90;48.810;9.120;2022-11-13T03:58:08;4.40;90.30
210;DHT22;90;48.810;9.120;2022-11-13T04:00:36;4.40;89.90
210;DHT22;90;48.810;9.120;2022-11-13T04:03:03;4.40;89.60
210;DHT22;90;48.810;9.120;2022-11-13T04:05:29;4.40;89.20
210;DHT22;90;48.810;9.120;2022-11-13T04:07:58;4.30;89.30
210;DHT22;90;48.810;9.120;2022-11-13T04:10:26;4.30;89.30
210;DHT22;90;48.810;9.120;2022-11-13T04:12:54;4.30;89.30
210;DHT22;90;48.810;9.120;2022-11-13T04:15:21;4.30;89.20
210;DHT22;90;48.810;9.120;2022-11-13T04:17:48;4.20;89.00
210;DHT22;90;48.810;9.120;2022-11-13T04:20:15;4.20;89.20
210;DHT22;90;48.810;9.120;2022-11-13T04:22:42;4.20;89.20
210;DHT22;90;48.810;9.120;2022-11-13T04:25:11;4.20;89.40
210;DHT22;90;48.810;9.120;2022-11-13T04:27:38;4.10;89.20
210;DHT22;90;48.810;9.120;2022-11-13T04:30:06;4.10;88.80
210;DHT22;90;48.810;9.120;2022-11-13T04:32:33;4.10;88.40
210;DHT22;90;48.810;9.120;2022-11-13T04:35:00;4.00;88.70
210;DHT22;90;48.810;9.120;2022-11-13T04:37:27;4.00;88.60
210;DHT22;90;48.810;9.120;2022-11-13T04:39:54;4.00;88.60
210;DHT22;90;48.810;9.120;2022-11-13T04:42:22;4.00;88.00
210;DHT22;90;48.810;9.120;2022-11-13T04:45:07;4.00;88.10
210;DHT22;90;48.810;9.120;2022-11-13T04:47:34;3.90;87.70
210;DHT22;90;48.810;9.120;2022-11-13T04:50:01;3.70;88.00
210;DHT22;90;48.810;9.120;2022-11-13T04:52:28;3.70;88.30
210;DHT22;90;48.810;9.120;2022-11-13T04:54:55;3.80;88.00
210;DHT22;90;48.810;9.120;2022-11-13T04:57:23;3.80;88.00
210;DHT22;90;48.810;9.120;2022-11-13T04:59:50;3.70;88.00
210;DHT22;90;48.810;9.120;2022-11-13T05:02:17;3.80;88.10
210;DHT22;90;48.810;9.120;2022-11-13T05:04:44;3.80;87.60
210;DHT22;90;48.810;9.120;2022-11-13T05:07:11;3.80;87.40
210;DHT22;90;48.810;9.120;2022-11-13T05:09:38;3.70;87.40
210;DHT22;90;48.810;9.120;2022-11-13T05:12:06;3.70;88.00
210;DHT22;90;48.810;9.120;2022-11-13T05:14:35;3.60;88.20
210;DHT22;90;48.810;9.120;2022-11-13T05:17:02;3.50;88.40
210;DHT22;90;48.810;9.120;2022-11-13T05:19:29;3.60;89.10
210;DHT22;90;48.810;9.120;2022-11-13T05:21:58;3.80;88.90
210;DHT22;90;48.810;9.120;2022-11-13T05:24:25;3.80;88.10
210;DHT22;90;48.810;9.120;2022-11-13T05:26:52;3.80;88.30
210;DHT22;90;48.810;9.120;2022-11-13T05:29:19;3.80;88.60
210;DHT22;90;48.810;9.120;2022-11-13T05:31:48;3.70;88.80
210;DHT22;90;48.810;9.120;2022-11-13T05:34:15;3.70;89.10
210;DHT22;90;48.810;9.120;2022-11-13T05:36:41;3.70;89.40
210;DHT22;90;48.810;9.120;2022-11-13T05:39:08;3.70;89.90
210;DHT22;90;48.810;9.120;2022-11-13T05:41:35;3.60;90.20
210;DHT22;90;48.810;9.120;2022-11-13T05:44:02;3.60;90.40
210;DHT22;90;48.810;9.120;2022-11-13T05:46:30;3.60;91.00
210;DHT22;90;48.810;9.120;2022-11-13T05:48:59;3.60;91.30
210;DHT22;90;48.810;9.120;2022-11-13T05:51:29;3.50;91.40
210;DHT22;90;48.810;9.120;2022-11-13T05:53:57;3.50;91.10
210;DHT22;90;48.810;9.120;2022-11-13T05:56:26;3.40;91.20
210;DHT22;90;48.810;9.120;2022-11-13T05:58:54;3.50;91.50
210;DHT22;90;48.810;9.120;2022-11-13T06:01:22;3.40;91.70
210;DHT22;90;48.810;9.120;2022-11-13T06:03:50;3.40;91.90
210;DHT22;90;48.810;9.120;2022-11-13T06:06:20;3.50;91.70
210;DHT22;90;48.810;9.120;2022-11-13T06:08:49;3.60;91.60
210;DHT22;90;48.810;9.120;2022-11-13T06:11:22;3.60;91.30
210;DHT22;90;48.810;9.120;2022-11-13T06:13:50;3.60;90.80
210;DHT22;90;48.810;9.120;2022-11-13T06:16:18;3.60;90.50
210;DHT22;90;48.810;9.120;2022-11-13T06:18:47;3.50;90.70
210;DHT22;90;48.810;9.120;2022-11-13T06:21:15;3.60;90.90
210;DHT22;90;48.810;9.120;2022-11-13T06:23:44;3.60;90.70
210;DHT22;90;48.810;9.120;2022-11-13T06:26:13;3.60;90.70
210;DHT22;90;48.810;9.120;2022-11-13T06:28:42;3.60;90.70
210;DHT22;90;48.810;9.120;2022-11-13T06:31:12;3.70;90.90
210;DHT22;90;48.810;9.120;2022-11-13T06:33:40;3.70;90.80
210;DHT22;90;48.810;9.120;2022-11-13T06:36:10;3.80;90.80
210;DHT22;90;48.810;9.120;2022-11-13T06:38:38;3.90;90.80
210;DHT22;90;48.810;9.120;2022-11-13T06:41:10;3.90;90.70
210;DHT22;90;48.810;9.120;2022-11-13T06:43:37;3.90;90.90
210;DHT22;90;48.810;9.120;2022-11-13T06:46:09;3.80;91.20
210;DHT22;90;48.810;9.120;2022-11-13T06:48:37;3.70;91.50
210;DHT22;90;48.810;9.120;2022-11-13T06:51:05;3.70;91.60
210;DHT22;90;48.810;9.120;2022-11-13T06:53:33;3.70;92.00
210;DHT22;90;48.810;9.120;2022-11-13T06:56:00;3.70;92.00
210;DHT22;90;48.810;9.120;2022-11-13T06:58:28;3.70;92.00
210;DHT22;90;48.810;9.120;2022-11-13T07:00:55;3.70;92.00
210;DHT22;90;48.810;9.120;2022-11-13T07:03:24;3.70;92.50
210;DHT22;90;48.810;9.120;2022-11-13T07:05:51;3.80;92.20
210;DHT22;90;48.810;9.120;2022-11-13T07:08:18;3.80;91.50
210;DHT22;90;48.810;9.120;2022-11-13T07:10:52;3.90;91.30
210;DHT22;90;48.810;9.120;2022-11-13T07:13:20;3.90;90.90
210;DHT22;90;48.810;9.120;2022-11-13T07:15:48;3.90;90.70
210;DHT22;90;48.810;9.120;2022-11-13T07:18:15;3.90;90.50
210;DHT22;90;48.810;9.120;2022-11-13T07:20:42;3.80;90.50
210;DHT22;90;48.810;9.120;2022-11-13T07:23:10;3.80;90.60
210;DHT22;90;48.810;9.120;2022-11-13T07:25:37;3.80;90.40
210;DHT22;90;48.810;9.120;2022-11-13T07:28:04;3.80;90.50
210;DHT22;90;48.810;9.120;2022-11-13T07:30:31;3.90;90.40
210;DHT22;90;48.810;9.120;2022-11-13T07:33:02;4.10;94.70
210;DHT22;90;48.810;9.120;2022-11-13T07:35:30;4.60;96.80
210;DHT22;90;48.810;9.120;2022-11-13T07:37:57;4.50;93.30
210;DHT22;90;48.810;9.120;2022-11-13T07:40:24;4.30;89.20
210;DHT22;90;48.810;9.120;2022-11-13T07:42:56;4.30;88.90
210;DHT22;90;48.810;9.120;2022-11-13T07:45:25;4.20;89.30
210;DHT22;90;48.810;9.120;2022-11-13T07:47:57;4.10;89.70
210;DHT22;90;48.810;9.120;2022-11-13T07:50:26;4.00;90.10
210;DHT22;90;48.810;9.120;2022-11-13T07:52:55;3.90;90.40
210;DHT22;90;48.810;9.120;2022-11-13T07:55:22;3.90;90.60
210;DHT22;90;48.810;9.120;2022-11-13T07:57:49;3.90;90.90
210;DHT22;90;48.810;9.120;2022-11-13T08:00:17;3.90;91.00
210;DHT22;90;48.810;9.120;2022-11-13T08:02:44;3.90;90.60
210;DHT22;90;48.810;9.120;2022-11-13T08:05:13;3.90;91.00
210;DHT22;90;48.810;9.120;2022-11-13T08:07:41;3.90;91.20
210;DHT22;90;48.810;9.120;2022-11-13T08:10:09;4.00;91.30
210;DHT22;90;48.810;9.120;2022-11-13T08:12:36;4.00;91.20
210;DHT22;90;48.810;9.120;2022-11-13T08:15:04;3.90;91.00
210;DHT22;90;48.810;9.120;2022-11-13T08:17:31;4.00;91.40
210;DHT22;90;48.810;9.120;2022-11-13T08:19:58;4.10;91.20
210;DHT22;90;48.810;9.120;2022-11-13T08:22:25;4.10;91.60
210;DHT22;90;48.810;9.120;2022-11-13T08:24:53;4.10;91.10
210;DHT22;90;48.810;9.120;2022-11-13T08:27:20;3.90;91.00
210;DHT22;90;48.810;9.120;2022-11-13T08:29:48;3.90;91.50
210;DHT22;90;48.810;9.120;2022-11-13T08:32:16;3.80;92.40
210;DHT22;90;48.810;9.120;2022-11-13T08:34:44;4.00;93.00
210;DHT22;90;48.810;9.120;2022-11-13T08:37:11;4.00;91.90
210;DHT22;90;48.810;9.120;2022-11-13T08:39:38;4.00;92.50
210;DHT22;90;48.810;9.120;2022-11-13T08:42:07;4.10;93.00
210;DHT22;90;48.810;9.120;2022-11-13T08:44:34;4.10;92.70
210;DHT22;90;48.810;9.120;2022-11-13T08:47:01;4.20;92.50
210;DHT22;90;48.810;9.120;2022-11-13T08:49:28;4.20;92.20
210;DHT22;90;48.810;9.120;2022-11-13T08:51:55;4.20;92.10
210;DHT22;90;48.810;9.120;2022-11-13T08:54:22;4.30;92.20
210;DHT22;90;48.810;9.120;2022-11-13T08:56:50;4.40;92.20
210;DHT22;90;48.810;9.120;2022-11-13T08:59:18;4.30;92.00
210;DHT22;90;48.810;9.120;2022-11-13T09:01:45;4.30;92.40
210;DHT22;90;48.810;9.120;2022-11-13T09:04:12;4.50;92.40
210;DHT22;90;48.810;9.120;2022-11-13T09:06:39;4.30;92.30
210;DHT22;90;48.810;9.120;2022-11-13T09:09:06;4.30;92.80
210;DHT22;90;48.810;9.120;2022-11-13T09:11:33;4.30;92.70
210;DHT22;90;48.810;9.120;2022-11-13T09:14:00;4.50;92.50
210;DHT22;90;48.810;9.120;2022-11-13T09:16:28;4.60;91.60
210;DHT22;90;48.810;9.120;2022-11-13T09:18:55;4.60;91.80
210;DHT22;90;48.810;9.120;2022-11-13T09:21:22;4.70;91.70
210;DHT22;90;48.810;9.120;2022-11-13T09:23:49;4.60;91.90
210;DHT22;90;48.810;9.120;2022-11-13T09:26:16;4.70;92.00
210;DHT22;90;48.810;9.120;2022-11-13T09:28:43;4.80;92.00
210;DHT22;90;48.810;9.120;2022-11-13T09:31:10;4.80;91.70
210;DHT22;90;48.810;9.120;2022-11-13T09:33:39;4.90;91.30
210;DHT22;90;48.810;9.120;2022-11-13T09:36:09;5.00;90.60
210;DHT22;90;48.810;9.120;2022-11-13T09:38:37;5.00;90.50
210;DHT22;90;48.810;9.120;2022-11-13T09:41:07;5.00;90.80
210;DHT22;90;48.810;9.120;2022-11-13T09:43:43;5.10;90.90
210;DHT22;90;48.810;9.120;2022-11-13T09:46:19;5.20;90.60
210;DHT22;90;48.810;9.120;2022-11-13T09:48:53;5.20;90.10
210;DHT22;90;48.810;9.120;2022-11-13T09:51:25;5.20;90.20
210;DHT22;90;48.810;9.120;2022-11-13T09:53:53;5.30;90.30
210;DHT22;90;48.810;9.120;2022-11-13T09:56:27;5.50;89.70
210;DHT22;90;48.810;9.120;2022-11-13T09:59:02;5.50;89.70
210;DHT22;90;48.810;9.120;2022-11-13T10:01:37;5.60;89.80
210;DHT22;90;48.810;9.120;2022-11-13T10:04:10;5.70;89.10
210;DHT22;90;48.810;9.120;2022-11-13T10:06:52;5.60;89.30
210;DHT22;90;48.810;9.120;2022-11-13T10:09:28;5.70;89.10
210;DHT22;90;48.810;9.120;2022-11-13T10:12:01;5.60;88.70
210;DHT22;90;48.810;9.120;2022-11-13T10:14:33;5.60;89.00
210;DHT22;90;48.810;9.120;2022-11-13T10:17:14;5.70;88.40
210;DHT22;90;48.810;9.120;2022-11-13T10:19:52;5.70;89.40
210;DHT22;90;48.810;9.120;2022-11-13T10:22:26;5.80;88.60
210;DHT22;90;48.810;9.120;2022-11-13T10:24:59;5.90;88.10
210;DHT22;90;48.810;9.120;2022-11-13T10:27:27;6.00;88.50
210;DHT22;90;48.810;9.120;2022-11-13T10:29:55;6.10;88.50
210;DHT22;90;48.810;9.120;2022-11-13T10:32:23;6.20;87.60
210;DHT22;90;48.810;9.120;2022-11-13T10:34:56;6.30;87.20
210;DHT22;90;48.810;9.120;2022-11-13T10:37:33;6.30;86.50
210;DHT22;90;48.810;9.120;2022-11-13T10:40:06;6.40;86.90
210;DHT22;90;48.810;9.120;2022-11-13T10:42:38;6.40;86.60
210;DHT22;90;48.810;9.120;2022-11-13T10:45:13;6.50;85.90
210;DHT22;90;48.810;9.120;2022-11-13T10:47:46;6.70;85.20
210;DHT22;90;48.810;9.120;2022-11-13T10:50:21;6.80;84.50
210;DHT22;90;48.810;9.120;2022-11-13T10:52:50;6.90;83.90
210;DHT22;90;48.810;9.120;2022-11-13T10:55:23;7.00;84.00
210;DHT22;90;48.810;9.120;2022-11-13T10:57:56;7.10;84.40
210;DHT22;90;48.810;9.120;2022-11-13T11:00:26;7.20;84.00
210;DHT22;90;48.810;9.120;2022-11-13T11:02:55;7.40;83.70
210;DHT22;90;48.810;9.120;2022-11-13T11:05:25;7.40;84.10
210;DHT22;90;48.810;9.120;2022-11-13T11:07:53;7.50;83.60
210;DHT22;90;48.810;9.120;2022-11-13T11:10:25;7.60;82.50
210;DHT22;90;48.810;9.120;2022-11-13T11:12:54;7.70;82.20
210;DHT22;90;48.810;9.120;2022-11-13T11:15:24;7.80;81.70
210;DHT22;90;48.810;9.120;2022-11-13T11:17:56;7.90;81.70
210;DHT22;90;48.810;9.120;2022-11-13T11:20:36;7.90;81.50
210;DHT22;90;48.810;9.120;2022-11-13T11:23:16;8.00;81.60
210;DHT22;90;48.810;9.120;2022-11-13T11:25:49;8.10;82.20
210;DHT22;90;48.810;9.120;2022-11-13T11:28:27;8.10;82.30
210;DHT22;90;48.810;9.120;2022-11-13T11:31:00;8.20;81.90
210;DHT22;90;48.810;9.120;2022-11-13T11:33:33;8.30;81.80
210;DHT22;90;48.810;9.120;2022-11-13T11:36:07;8.40;81.80
210;DHT22;90;48.810;9.120;2022-11-13T11:38:44;8.50;81.30
210;DHT22;90;48.810;9.120;2022-11-13T11:41:16;8.60;80.60
210;DHT22;90;48.810;9.120;2022-11-13T11:43:47;8.70;79.90
210;DHT22;90;48.810;9.120;2022-11-13T11:46:21;8.70;79.90
210;DHT22;90;48.810;9.120;2022-11-13T11:48:49;8.80;80.10
210;DHT22;90;48.810;9.120;2022-11-13T11:51:22;9.00;80.20
210;DHT22;90;48.810;9.120;2022-11-13T11:53:57;9.10;79.90
210;DHT22;90;48.810;9.120;2022-11-13T11:56:31;9.20;79.80
210;DHT22;90;48.810;9.120;2022-11-13T11:59:11;9.30;79.10
210;DHT22;90;48.810;9.120;2022-11-13T12:02:01;9.50;78.70
210;DHT22;90;48.810;9.120;2022-11-13T12:04:49;9.60;78.00
210;DHT22;90;48.810;9.120;2022-11-13T12:07:28;9.70;76.60
210;DHT22;90;48.810;9.120;2022-11-13T12:10:04;9.80;76.40
210;DHT22;90;48.810;9.120;2022-11-13T12:12:49;9.80;76.30
210;DHT22;90;48.810;9.120;2022-11-13T12:15:25;9.90;77.30
210;DHT22;90;48.810;9.120;2022-11-13T12:18:00;10.00;76.80
210;DHT22;90;48.810;9.120;2022-11-13T12:20:35;10.10;76.80
210;DHT22;90;48.810;9.120;2022-11-13T12:23:21;10.10;77.10
210;DHT22;90;48.810;9.120;2022-11-13T12:25:54;10.20;76.00
210;DHT22;90;48.810;9.120;2022-11-13T12:28:30;10.50;78.80
210;DHT22;90;48.810;9.120;2022-11-13T12:31:07;10.70;76.40
210;DHT22;90;48.810;9.120;2022-11-13T12:33:46;10.70;76.10
210;DHT22;90;48.810;9.120;2022-11-13T12:36:15;10.80;75.50
210;DHT22;90;48.810;9.120;2022-11-13T12:38:50;10.80;75.30
210;DHT22;90;48.810;9.120;2022-11-13T12:41:26;10.90;73.90
210;DHT22;90;48.810;9.120;2022-11-13T12:44:02;10.90;75.00
210;DHT22;90;48.810;9.120;2022-11-13T12:46:34;10.90;72.20
210;DHT22;90;48.810;9.120;2022-11-13T12:49:14;11.10;72.20
210;DHT22;90;48.810;9.120;2022-11-13T12:51:53;11.20;70.80
210;DHT22;90;48.810;9.120;2022-11-13T12:54:26;11.20;71.40
210;DHT22;90;48.810;9.120;2022-11-13T12:57:15;11.20;70.90
210;DHT22;90;48.810;9.120;2022-11-13T12:59:45;11.30;69.60
210;DHT22;90;48.810;9.120;2022-11-13T13:02:42;11.40;70.00
210;DHT22;90;48.810;9.120;2022-11-13T13:05:22;11.40;70.20
210;DHT22;90;48.810;9.120;2022-11-13T13:11:13;11.60;69.10
210;DHT22;90;48.810;9.120;2022-11-13T13:13:46;11.60;70.30
210;DHT22;90;48.810;9.120;2022-11-13T13:16:22;11.60;70.00
210;DHT22;90;48.810;9.120;2022-11-13T13:18:50;11.70;68.90
210;DHT22;90;48.810;9.120;2022-11-13T13:21:19;11.70;68.80
210;DHT22;90;48.810;9.120;2022-11-13T13:23:48;11.50;70.40
210;DHT22;90;48.810;9.120;2022-11-13T13:26:20;11.60;70.50
210;DHT22;90;48.810;9.120;2022-11-13T13:28:50;11.70;70.50
210;DHT22;90;48.810;9.120;2022-11-13T13:31:32;11.80;70.90
210;DHT22;90;48.810;9.120;2022-11-13T13:34:15;11.80;70.20
210;DHT22;90;48.810;9.120;2022-11-13T13:36:48;11.90;70.50
210;DHT22;90;48.810;9.120;2022-11-13T13:39:27;12.00;70.00
210;DHT22;90;48.810;9.120;2022-11-13T13:42:23;12.10;70.10
210;DHT22;90;48.810;9.120;2022-11-13T13:45:04;12.10;70.60
210;DHT22;90;48.810;9.120;2022-11-13T13:47:39;12.10;70.90
210;DHT22;90;48.810;9.120;2022-11-13T13:50:20;12.10;71.60
210;DHT22;90;48.810;9.120;2022-11-13T13:52:48;12.00;72.10
210;DHT22;90;48.810;9.120;2022-11-13T13:55:19;12.00;72.30
210;DHT22;90;48.810;9.120;2022-11-13T13:57:49;11.90;72.90
210;DHT22;90;48.810;9.120;2022-11-13T14:00:18;12.00;73.20
210;DHT22;90;48.810;9.120;2022-11-13T14:02:48;12.00;72.30
210;DHT22;90;48.810;9.120;2022-11-13T14:05:27;12.00;72.10
210;DHT22;90;48.810;9.120;2022-11-13T14:07:54;12.00;71.90
210;DHT22;90;48.810;9.120;2022-11-13T14:10:22;12.00;71.40
210;DHT22;90;48.810;9.120;2022-11-13T14:12:51;12.00;71.50
210;DHT22;90;48.810;9.120;2022-11-13T14:15:24;12.10;71.20
210;DHT22;90;48.810;9.120;2022-11-13T14:17:52;12.10;70.70
210;DHT22;90;48.810;9.120;2022-11-13T14:20:33;12.00;71.30
210;DHT22;90;48.810;9.120;2022-11-13T14:23:03;12.10;71.30
210;DHT22;90;48.810;9.120;2022-11-13T14:25:30;12.00;71.70
210;DHT22;90;48.810;9.120;2022-11-13T14:27:58;12.00;71.70
210;DHT22;90;48.810;9.120;2022-11-13T14:30:27;12.00;72.10
210;DHT22;90;48.810;9.120;2022-11-13T14:32:55;12.00;72.00
210;DHT22;90;48.810;9.120;2022-11-13T14:35:24;12.00;72.20
210;DHT22;90;48.810;9.120;2022-11-13T14:37:52;11.80;72.90
210;DHT22;90;48.810;9.120;2022-11-13T14:40:22;11.70;73.30
210;DHT22;90;48.810;9.120;2022-11-13T14:42:52;11.60;73.90
210;DHT22;90;48.810;9.120;2022-11-13T14:45:24;11.40;74.40
210;DHT22;90;48.810;9.120;2022-11-13T14:47:57;11.20;75.20
210;DHT22;90;48.810;9.120;2022-11-13T14:50:26;11.00;76.20
210;DHT22;90;48.810;9.120;2022-11-13T14:53:01;10.90;77.10
210;DHT22;90;48.810;9.120;2022-11-13T14:55:30;10.70;77.60
210;DHT22;90;48.810;9.120;2022-11-13T14:57:58;10.60;78.30
210;DHT22;90;48.810;9.120;2022-11-13T15:00:30;10.50;78.90
210;DHT22;90;48.810;9.120;2022-11-13T15:02:59;10.40;79.40
210;DHT22;90;48.810;9.120;2022-11-13T15:05:26;10.30;80.20
210;DHT22;90;48.810;9.120;2022-11-13T15:07:54;10.20;80.70
210;DHT22;90;48.810;9.120;2022-11-13T15:10:23;10.10;81.30
210;DHT22;90;48.810;9.120;2022-11-13T15:12:50;10.00;81.60
210;DHT22;90;48.810;9.120;2022-11-13T15:15:20;9.80;82.10
210;DHT22;90;48.810;9.120;2022-11-13T15:17:50;9.70;82.70
210;DHT22;90;48.810;9.120;2022-11-13T15:20:21;9.60;82.90
210;DHT22;90;48.810;9.120;2022-11-13T15:22:51;9.60;83.10
210;DHT22;90;48.810;9.120;2022-11-13T15:25:19;9.50;83.30
210;DHT22;90;48.810;9.120;2022-11-13T15:27:46;9.40;83.70
210;DHT22;90;48.810;9.120;2022-11-13T15:30:14;9.30;83.70
210;DHT22;90;48.810;9.120;2022-11-13T15:32:41;9.10;83.80
210;DHT22;90;48.810;9.120;2022-11-13T15:35:13;9.00;84.10
210;DHT22;90;48.810;9.120;2022-11-13T15:37:41;8.90;84.20
210;DHT22;90;48.810;9.120;2022-11-13T15:40:10;8.90;85.20
210;DHT22;90;48.810;9.120;2022-11-13T15:42:38;8.80;84.70
210;DHT22;90;48.810;9.120;2022-11-13T15:45:05;8.70;85.40
210;DHT22;90;48.810;9.120;2022-11-13T15:47:34;8.60;85.80
210;DHT22;90;48.810;9.120;2022-11-13T15:50:03;8.60;85.60
210;DHT22;90;48.810;9.120;2022-11-13T15:52:35;8.50;85.80
210;DHT22;90;48.810;9.120;2022-11-13T15:55:18;8.50;85.80
210;DHT22;90;48.810;9.120;2022-11-13T15:57:46;8.50;85.60
210;DHT22;90;48.810;9.120;2022-11-13T16:00:14;8.40;85.70
210;DHT22;90;48.810;9.120;2022-11-13T16:02:41;8.20;86.30
210;DHT22;90;48.810;9.120;2022-11-13T16:05:09;8.20;86.60
210;DHT22;90;48.810;9.120;2022-11-13T16:07:37;8.20;86.70
210;DHT22;90;48.810;9.120;2022-11-13T16:10:07;8.20;86.50
210;DHT22;90;48.810;9.120;2022-11-13T16:12:34;8.10;86.60
210;DHT22;90;48.810;9.120;2022-11-13T16:15:02;8.00;87.00
210;DHT22;90;48.810;9.120;2022-11-13T16:17:32;8.00;86.70
210;DHT22;90;48.810;9.120;2022-11-13T16:20:03;7.90;86.60
210;DHT22;90;48.810;9.120;2022-11-13T16:22:32;7.90;86.80
210;DHT22;90;48.810;9.120;2022-11-13T16:25:01;7.80;86.80
210;DHT22;90;48.810;9.120;2022-11-13T16:27:30;7.80;87.00
210;DHT22;90;48.810;9.120;2022-11-13T16:29:58;7.80;87.00
210;DHT22;90;48.810;9.120;2022-11-13T16:32:26;7.80;86.90
210;DHT22;90;48.810;9.120;2022-11-13T16:34:53;7.70;87.00
210;DHT22;90;48.810;9.120;2022-11-13T16:37:21;7.60;86.90
210;DHT22;90;48.810;9.120;2022-11-13T16:39:49;7.50;87.30
210;DHT22;90;48.810;9.120;2022-11-13T16:42:18;7.50;87.50
210;DHT22;90;48.810;9.120;2022-11-13T16:44:45;7.50;87.50
210;DHT22;90;48.810;9.120;2022-11-13T16:47:25;7.40;87.60
210;DHT22;90;48.810;9.120;2022-11-13T16:49:52;7.40;88.00
210;DHT22;90;48.810;9.120;2022-11-13T16:52:19;7.40;87.80
210;DHT22;90;48.810;9.120;2022-11-13T16:54:46;7.50;92.40
210;DHT22;90;48.810;9.120;2022-11-13T16:57:13;7.50;89.90
210;DHT22;90;48.810;9.120;2022-11-13T16:59:43;7.50;85.20
210;DHT22;90;48.810;9.120;2022-11-13T17:02:12;7.40;83.30
210;DHT22;90;48.810;9.120;2022-11-13T17:04:40;7.40;83.30
210;DHT22;90;48.810;9.120;2022-11-13T17:07:10;7.30;82.90
210;DHT22;90;48.810;9.120;2022-11-13T17:09:38;7.40;83.50
210;DHT22;90;48.810;9.120;2022-11-13T17:12:06;7.30;82.90
210;DHT22;90;48.810;9.120;2022-11-13T17:14:33;7.10;82.90
210;DHT22;90;48.810;9.120;2022-11-13T17:17:02;7.00;85.00
210;DHT22;90;48.810;9.120;2022-11-13T17:19:29;7.00;84.80
210;DHT22;90;48.810;9.120;2022-11-13T17:21:56;7.00;84.80
210;DHT22;90;48.810;9.120;2022-11-13T17:24:23;7.00;84.90
210;DHT22;90;48.810;9.120;2022-11-13T17:26:50;6.90;85.70